Time;durP1;ratioP1;P1;durP2;ratioP2;P2;SDS_P1;SDS_P2;PMS_P1;PMS_P2;Temp;Humidity;BMP_temperature;BMP_pressure;BME280_temperature;BME280_humidity;BME280_pressure;Samples;Min_cycle;Max_cycle;Signal;HPM_P1;HPM_P2
2022/11/06 00:00:12;;;;;;;6.75;3.30;;;;;;;8.07;100.00;101341.94;4965965;28;20169;-64
2022/11/06 00:02:37;;;;;;;4.72;3.10;;;;;;;8.07;100.00;101347.09;4971587;28;20166;-64
2022/11/06 00:07:47;;;;;;;8.98;3.25;;;;;;;8.09;100.00;101349.75;4973270;28;20046;-64
2022/11/06 00:10:14;;;;;;;10.50;3.92;;;;;;;8.08;100.00;101353.16;4965679;28;20546;-64
2022/11/06 00:12:39;;;;;;;6.93;3.88;;;;;;;8.04;100.00;101352.09;4969812;28;20053;-64
2022/11/06 00:15:05;;;;;;;8.10;3.30;;;;;;;8.05;100.00;101356.44;4969928;28;20023;-64
2022/11/06 00:17:30;;;;;;;6.05;3.22;;;;;;;8.01;100.00;101351.94;4961994;28;20425;-64
2022/11/06 00:19:56;;;;;;;6.28;2.90;;;;;;;8.00;100.00;101345.00;4959021;28;20034;-64
2022/11/06 00:22:21;;;;;;;8.57;3.65;;;;;;;7.99;100.00;101353.53;4974060;28;20066;-64
2022/11/06 00:24:48;;;;;;;6.47;3.00;;;;;;;7.96;100.00;101348.22;4979409;28;20549;-64
2022/11/06 00:27:13;;;;;;;5.82;3.40;;;;;;;7.93;100.00;101344.69;4971684;28;20077;-64
2022/11/06 00:29:38;;;;;;;5.68;3.13;;;;;;;7.89;100.00;101342.78;4971332;28;20027;-64
2022/11/06 00:32:03;;;;;;;5.47;3.13;;;;;;;7.89;100.00;101340.19;4985339;28;20433;-64
2022/11/06 00:34:29;;;;;;;7.78;3.17;;;;;;;7.88;100.00;101334.94;4976858;28;20073;-64
2022/11/06 00:36:54;;;;;;;8.18;3.40;;;;;;;7.85;100.00;101330.50;4980630;28;20034;-64
2022/11/06 00:39:19;;;;;;;7.55;3.30;;;;;;;7.84;100.00;101328.75;4986164;28;20049;-64
2022/11/06 00:41:45;;;;;;;5.90;2.97;;;;;;;7.83;100.00;101329.53;4987010;28;20023;-64
2022/11/06 00:44:10;;;;;;;7.95;3.03;;;;;;;7.83;100.00;101321.78;4971834;28;20097;-64
2022/11/06 00:46:36;;;;;;;8.13;3.20;;;;;;;7.81;100.00;101318.25;4979637;28;20050;-64
2022/11/06 00:49:01;;;;;;;5.18;2.58;;;;;;;7.78;100.00;101312.94;4961248;28;20102;-64
2022/11/06 00:51:29;;;;;;;6.22;2.88;;;;;;;7.77;100.00;101317.19;4976990;28;20035;-64
2022/11/06 00:53:56;;;;;;;7.13;2.22;;;;;;;7.76;100.00;101320.59;4976853;28;20038;-65
2022/11/06 00:56:23;;;;;;;6.43;2.55;;;;;;;7.74;100.00;101319.63;4978842;28;20023;-64
2022/11/06 00:58:48;;;;;;;6.43;2.80;;;;;;;7.72;100.00;101321.25;4962608;28;20331;-64
2022/11/06 01:01:16;;;;;;;5.43;2.60;;;;;;;7.72;100.00;101318.66;4954371;28;20038;-64
2022/11/06 01:03:43;;;;;;;6.05;2.85;;;;;;;7.72;100.00;101323.81;4960585;28;20025;-64
2022/11/06 01:06:15;;;;;;;11.18;3.60;;;;;;;7.70;100.00;101328.00;4970693;28;20034;-64
2022/11/06 01:08:41;;;;;;;6.78;2.35;;;;;;;7.68;100.00;101322.78;4962743;28;20109;-64
2022/11/06 01:11:27;;;;;;;7.45;2.50;;;;;;;7.67;100.00;101320.13;4965334;28;20621;-64
2022/11/06 01:13:55;;;;;;;12.75;3.33;;;;;;;7.67;100.00;101312.38;4970763;28;20541;-64
2022/11/06 01:16:22;;;;;;;6.68;2.90;;;;;;;7.66;100.00;101308.91;4970494;28;20026;-65
2022/11/06 01:18:48;;;;;;;8.23;2.58;;;;;;;7.66;100.00;101318.38;4960171;28;20031;-64
2022/11/06 01:21:27;;;;;;;8.50;3.47;;;;;;;7.62;100.00;101317.31;4980702;28;20027;-64
2022/11/06 01:23:55;;;;;;;6.03;2.83;;;;;;;7.63;100.00;101307.88;4970616;28;20097;-64
2022/11/06 01:26:22;;;;;;;7.53;2.75;;;;;;;7.60;100.00;101308.59;4954556;28;20078;-64
2022/11/06 01:28:47;;;;;;;6.63;2.75;;;;;;;7.59;100.00;101305.94;4959791;28;20124;-64
2022/11/06 01:31:21;;;;;;;5.45;2.00;;;;;;;7.59;100.00;101306.81;4956857;28;20019;-64
2022/11/06 01:33:46;;;;;;;5.00;1.88;;;;;;;7.58;100.00;101302.47;4969538;28;20049;-64
2022/11/06 01:36:14;;;;;;;6.15;2.25;;;;;;;7.58;100.00;101299.91;4970710;28;20101;-64
2022/11/06 01:38:41;;;;;;;6.78;2.42;;;;;;;7.58;100.00;101299.91;4964574;28;20061;-64
2022/11/06 01:41:06;;;;;;;6.68;2.40;;;;;;;7.59;100.00;101286.19;4960140;28;20070;-64
2022/11/06 01:43:50;;;;;;;5.85;2.08;;;;;;;7.60;100.00;101282.81;4974058;28;20479;-64
2022/11/06 01:46:17;;;;;;;7.20;2.42;;;;;;;7.61;100.00;101269.09;4974813;28;20112;-65
2022/11/06 01:48:46;;;;;;;6.63;2.75;;;;;;;7.62;100.00;101273.47;4966815;28;20039;-64
2022/11/06 01:51:13;;;;;;;8.82;2.70;;;;;;;7.63;100.00;101272.66;4953179;28;20514;-64
2022/11/06 01:53:38;;;;;;;5.03;2.80;;;;;;;7.65;100.00;101271.03;4962644;28;20187;-64
2022/11/06 01:56:08;;;;;;;8.77;2.42;;;;;;;7.66;100.00;101275.38;4953976;28;20015;-64
2022/11/06 01:58:37;;;;;;;6.75;2.33;;;;;;;7.69;100.00;101278.13;4953918;28;20027;-64
2022/11/06 02:01:03;;;;;;;6.82;2.63;;;;;;;7.69;100.00;101272.97;4958024;28;20603;-64
2022/11/06 02:03:29;;;;;;;7.40;2.10;;;;;;;7.73;100.00;101278.28;4962864;28;20102;-64
2022/11/06 02:05:56;;;;;;;6.47;2.50;;;;;;;7.74;100.00;101272.28;4975511;28;20285;-64
2022/11/06 02:08:22;;;;;;;6.50;2.67;;;;;;;7.76;100.00;101275.84;4970202;28;20026;-64
2022/11/06 02:10:49;;;;;;;5.13;2.95;;;;;;;7.78;100.00;101280.28;4968929;28;20198;-64
2022/11/06 02:13:20;;;;;;;9.48;2.05;;;;;;;7.80;100.00;101270.03;4959534;28;20030;-64
2022/11/06 02:15:45;;;;;;;;;;;;;;;7.81;100.00;101262.38;4956762;28;20055;-64
2022/11/06 02:18:52;;;;;;;5.38;2.38;;;;;;;7.84;100.00;101261.66;4960899;28;20404;-64
2022/11/06 02:21:35;;;;;;;5.82;2.13;;;;;;;7.88;100.00;101263.56;4971612;28;20043;-64
2022/11/06 02:24:29;;;;;;;7.18;2.10;;;;;;;7.88;100.00;101252.38;4969157;28;20463;-64
2022/11/06 02:27:10;;;;;;;6.53;2.00;;;;;;;7.89;100.00;101249.88;4957563;28;20109;-64
2022/11/06 02:29:47;;;;;;;6.82;2.30;;;;;;;7.90;100.00;101251.63;4959307;28;20125;-64
2022/11/06 02:32:21;;;;;;;6.32;2.03;;;;;;;7.92;100.00;101247.44;4957838;28;20041;-64
2022/11/06 02:34:50;;;;;;;7.30;2.88;;;;;;;7.93;100.00;101250.91;4967934;28;20139;-64
2022/11/06 02:37:20;;;;;;;7.85;2.33;;;;;;;7.95;100.00;101248.41;4978652;28;20023;-64
2022/11/06 02:39:50;;;;;;;6.60;2.03;;;;;;;7.95;100.00;101248.41;4961836;28;20158;-64
2022/11/06 02:42:18;;;;;;;7.03;2.17;;;;;;;7.93;100.00;101249.19;4966499;28;20019;-64
2022/11/06 02:44:49;;;;;;;6.20;2.78;;;;;;;7.93;100.00;101238.00;4952868;28;20591;-64
2022/11/06 02:47:18;;;;;;;3.70;2.07;;;;;;;7.93;100.00;101232.84;4963559;28;20045;-64
2022/11/06 02:49:52;;;;;;;6.35;1.90;;;;;;;7.93;100.00;101236.28;4972633;28;20455;-64
2022/11/06 02:52:34;;;;;;;7.60;2.25;;;;;;;7.95;100.00;101228.63;4985092;28;20529;-64
2022/11/06 02:55:27;;;;;;;9.10;2.33;;;;;;;7.96;100.00;101230.41;4985108;28;20406;-64
2022/11/06 02:57:59;;;;;;;10.18;2.42;;;;;;;7.97;100.00;101236.47;4970240;28;20043;-64
2022/11/06 03:00:26;;;;;;;5.35;2.33;;;;;;;7.99;100.00;101239.97;4977130;28;20298;-64
2022/11/06 03:02:59;;;;;;;6.13;2.10;;;;;;;8.00;100.00;101231.44;4965679;28;20019;-64
2022/11/06 03:05:34;;;;;;;6.78;1.90;;;;;;;8.00;100.00;101239.19;4971029;28;20049;-64
2022/11/06 03:08:16;;;;;;;7.60;2.10;;;;;;;8.02;100.00;101245.31;4972846;28;20050;-64
2022/11/06 03:10:58;;;;;;;5.65;2.22;;;;;;;8.02;100.00;101243.59;4977722;28;20050;-64
2022/11/06 03:13:46;;;;;;;6.57;2.00;;;;;;;8.05;100.00;101248.03;4979467;28;20022;-64
2022/11/06 03:16:38;;;;;;;5.25;2.10;;;;;;;8.05;100.00;101255.78;4968391;28;20045;-64
2022/11/06 03:19:21;;;;;;;;;;;;;;;8.06;100.00;101252.38;4969296;28;20069;-64
2022/11/06 03:21:53;;;;;;;9.23;2.53;;;;;;;8.08;100.00;101232.69;4962162;28;19914;-64
2022/11/06 03:24:29;;;;;;;8.93;2.80;;;;;;;8.09;100.00;101231.00;4962184;28;20105;-64
2022/11/06 03:26:55;;;;;;;9.00;2.17;;;;;;;8.09;100.00;101236.16;4957007;28;20406;-64
2022/11/06 03:29:26;;;;;;;5.28;1.77;;;;;;;8.09;100.00;101212.94;4968667;28;20034;-64
2022/11/06 03:32:04;;;;;;;5.97;1.87;;;;;;;8.08;100.00;101214.63;4962633;28;20031;-64
2022/11/06 03:34:38;;;;;;;7.93;2.30;;;;;;;8.08;100.00;101212.03;4974033;28;20033;-64
2022/11/06 03:37:12;;;;;;;3.70;2.10;;;;;;;8.05;100.00;101206.72;4975539;28;20050;-64
2022/11/06 03:39:45;;;;;;;5.28;1.88;;;;;;;8.04;100.00;101203.25;4974382;28;20034;-64
2022/11/06 03:42:15;;;;;;;5.97;1.65;;;;;;;8.00;100.00;101203.06;4972789;28;20053;-64
2022/11/06 03:44:47;;;;;;;5.53;2.00;;;;;;;8.01;100.00;101197.06;4960923;28;20419;-64
2022/11/06 03:47:29;;;;;;;7.28;2.15;;;;;;;7.98;100.00;101191.75;4964576;28;20023;-64
2022/11/06 03:50:11;;;;;;;7.22;1.98;;;;;;;7.99;100.00;101194.41;4978527;28;20481;-64
2022/11/06 03:52:43;;;;;;;5.75;2.38;;;;;;;7.99;100.00;101185.78;4981281;28;20037;-64
2022/11/06 03:55:20;;;;;;;7.72;2.08;;;;;;;7.99;100.00;101173.75;4984865;28;20499;-64
2022/11/06 03:57:56;;;;;;;7.45;2.13;;;;;;;8.03;100.00;101174.78;4977438;28;20475;-64
2022/11/06 04:00:22;;;;;;;9.95;2.42;;;;;;;8.03;100.00;101170.53;4984314;28;20069;-64
2022/11/06 04:03:03;;;;;;;5.70;2.00;;;;;;;8.04;100.00;101161.97;4977086;28;20165;-64
2022/11/06 04:05:32;;;;;;;3.45;1.95;;;;;;;8.05;100.00;101168.00;4959260;28;20113;-64
2022/11/06 04:16:18;;;;;;;4.32;2.00;;;;;;;8.11;100.00;101157.97;4970478;28;20045;-64
2022/11/06 04:18:43;;;;;;;8.52;2.97;;;;;;;8.12;100.00;101154.59;4971033;28;20027;-64
2022/11/06 04:21:23;;;;;;;5.78;2.13;;;;;;;8.12;100.00;101149.44;4970714;28;20038;-64
2022/11/06 04:26:34;;;;;;;6.15;1.75;;;;;;;8.12;100.00;101146.84;4972786;28;20038;-64
2022/11/06 04:26:46;;;;;;;4.85;1.65;;;;;;;8.14;100.00;101141.75;4970158;28;20042;-64
2022/11/06 04:29:25;;;;;;;6.25;2.00;;;;;;;8.13;100.00;101134.84;4961283;28;20394;-64
2022/11/06 04:32:23;;;;;;;6.35;2.60;;;;;;;8.14;100.00;101136.59;4968852;28;20106;-64
2022/11/06 04:35:03;;;;;;;9.30;2.22;;;;;;;8.15;100.00;101133.19;4956310;28;20039;-64
2022/11/06 04:37:51;;;;;;;4.60;2.45;;;;;;;8.15;100.00;101128.91;4962100;28;20442;-64
2022/11/06 04:40:34;;;;;;;6.40;1.75;;;;;;;8.17;100.00;101131.56;4965108;28;20030;-64
2022/11/06 04:43:06;;;;;;;4.10;1.80;;;;;;;8.16;100.00;101129.81;4963232;28;20494;-64
2022/11/06 04:45:36;;;;;;;5.57;2.00;;;;;;;8.13;100.00;101125.38;4968742;28;20061;-65
2022/11/06 04:48:04;;;;;;;4.97;2.15;;;;;;;8.13;100.00;101121.94;4970636;28;20037;-64
2022/11/06 04:50:35;;;;;;;6.32;2.03;;;;;;;8.12;100.00;101123.63;4956699;28;20058;-64
2022/11/06 04:53:02;;;;;;;4.82;2.03;;;;;;;8.11;100.00;101121.81;4970204;28;20026;-64
2022/11/06 04:55:28;;;;;;;7.00;2.53;;;;;;;8.08;100.00;101121.69;4967165;28;20118;-64
2022/11/06 04:57:53;;;;;;;10.23;2.40;;;;;;;8.08;100.00;101126.00;4959573;28;20042;-64
2022/11/06 05:00:19;;;;;;;5.65;1.85;;;;;;;8.07;100.00;101126.78;4969850;28;20030;-64
2022/11/06 05:02:44;;;;;;;6.95;1.58;;;;;;;8.05;100.00;101111.22;4967357;28;20019;-64
2022/11/06 05:05:10;;;;;;;4.63;1.77;;;;;;;8.06;100.00;101118.16;4959287;28;20105;-64
2022/11/06 05:07:35;;;;;;;5.90;1.60;;;;;;;8.05;100.00;101106.06;4969119;28;20054;-64
2022/11/06 05:10:00;;;;;;;7.97;2.67;;;;;;;8.02;100.00;101109.38;4970386;28;20037;-64
2022/11/06 05:12:26;;;;;;;7.15;2.17;;;;;;;8.01;100.00;101109.31;4969722;28;20039;-64
2022/11/06 05:14:51;;;;;;;3.70;1.77;;;;;;;8.00;100.00;101111.03;4969864;28;20023;-64
2022/11/06 05:17:16;;;;;;;5.70;1.60;;;;;;;7.99;100.00;101108.34;4981493;28;20038;-64
2022/11/06 05:19:41;;;;;;;4.35;2.40;;;;;;;7.99;100.00;101105.75;4970367;28;20487;-64
2022/11/06 05:24:52;;;;;;;8.57;2.40;;;;;;;7.97;100.00;101094.50;4961277;28;20046;-64
2022/11/06 05:27:17;;;;;;;9.20;2.38;;;;;;;7.97;100.00;101095.38;4965442;28;20046;-65
2022/11/06 05:29:43;;;;;;;4.78;1.65;;;;;;;7.96;100.00;101101.38;4973158;28;20050;-64
2022/11/06 05:32:08;;;;;;;5.35;1.92;;;;;;;7.96;100.00;101095.31;4968571;28;20058;-64
2022/11/06 05:34:34;;;;;;;8.68;2.45;;;;;;;7.95;100.00;101099.56;4974104;28;20483;-64
2022/11/06 05:36:59;;;;;;;6.47;1.90;;;;;;;7.93;100.00;101090.91;4975987;28;20097;-64
2022/11/06 05:39:24;;;;;;;4.53;1.77;;;;;;;7.93;100.00;101091.75;4955700;28;20047;-64
2022/11/06 05:41:49;;;;;;;4.95;2.05;;;;;;;7.92;100.00;101095.16;4975476;28;20026;-64
2022/11/06 05:44:15;;;;;;;4.40;1.80;;;;;;;7.93;100.00;101090.91;4962454;28;20237;-65
2022/11/06 05:46:40;;;;;;;3.22;2.03;;;;;;;7.93;100.00;101085.75;4968438;28;20543;-64
2022/11/06 05:49:05;;;;;;;4.30;1.60;;;;;;;7.93;100.00;101090.91;4968465;28;20038;-64
2022/11/06 05:51:31;;;;;;;2.95;1.98;;;;;;;7.92;100.00;101087.44;4962830;28;20069;-64
2022/11/06 05:53:56;;;;;;;5.78;2.33;;;;;;;7.91;100.00;101077.94;4976950;28;20093;-64
2022/11/06 05:56:21;;;;;;;7.63;1.95;;;;;;;7.91;100.00;101085.69;4976485;28;20022;-64
2022/11/06 05:58:46;;;;;;;5.25;1.85;;;;;;;7.92;100.00;101071.06;4970242;28;20023;-64
2022/11/06 06:01:12;;;;;;;7.97;1.98;;;;;;;7.93;100.00;101075.41;4970114;28;20042;-64
2022/11/06 06:03:37;;;;;;;6.70;2.22;;;;;;;7.93;100.00;101071.13;4956544;28;20027;-64
2022/11/06 06:06:03;;;;;;;5.63;2.10;;;;;;;7.93;100.00;101073.69;4964505;28;20027;-64
2022/11/06 06:08:28;;;;;;;5.85;1.80;;;;;;;7.92;100.00;101069.38;4969456;28;20027;-64
2022/11/06 06:10:53;;;;;;;4.65;2.10;;;;;;;7.92;100.00;101078.78;4969334;28;20025;-64
2022/11/06 06:13:19;;;;;;;8.05;2.50;;;;;;;7.92;100.00;101074.53;4981533;28;20054;-64
2022/11/06 06:15:45;;;;;;;5.97;2.15;;;;;;;7.93;100.00;101067.69;4982673;28;20085;-64
2022/11/06 06:18:10;;;;;;;3.67;1.90;;;;;;;7.95;100.00;101065.16;4955265;28;20054;-64
2022/11/06 06:20:36;;;;;;;6.22;1.92;;;;;;;7.96;100.00;101064.34;4969532;28;20073;-64
2022/11/06 06:23:02;;;;;;;3.72;2.08;;;;;;;7.98;100.00;101058.44;4971945;28;20025;-64
2022/11/06 06:25:29;;;;;;;4.68;2.10;;;;;;;7.97;100.00;101055.81;4987385;28;20356;-64
2022/11/06 06:27:55;;;;;;;5.07;1.92;;;;;;;7.99;100.00;101056.72;4973543;28;20424;-64
2022/11/06 06:30:21;;;;;;;5.72;1.80;;;;;;;7.99;100.00;101061.88;4960250;28;20034;-64
2022/11/06 06:32:47;;;;;;;3.65;1.50;;;;;;;8.00;100.00;101061.09;4963851;28;20070;-64
2022/11/06 06:35:12;;;;;;;6.93;1.85;;;;;;;7.99;100.00;101065.38;4978789;28;20435;-64
2022/11/06 06:37:38;;;;;;;6.25;1.90;;;;;;;8.00;100.00;101071.41;4975475;28;20596;-65
2022/11/06 06:40:04;;;;;;;3.67;2.10;;;;;;;8.00;100.00;101068.84;4972270;28;20479;-64
2022/11/06 06:42:30;;;;;;;4.60;1.80;;;;;;;8.02;100.00;101064.63;4988155;28;20077;-64
2022/11/06 06:44:55;;;;;;;5.18;1.60;;;;;;;8.03;100.00;101076.72;4976333;28;20078;-64
2022/11/06 06:47:21;;;;;;;5.20;2.22;;;;;;;8.03;100.00;101072.44;4967908;28;20022;-64
2022/11/06 06:49:46;;;;;;;6.65;1.73;;;;;;;8.04;100.00;101070.75;4969151;28;20038;-64
2022/11/06 06:52:12;;;;;;;5.25;1.45;;;;;;;8.06;100.00;101074.25;4952972;28;20055;-64
2022/11/06 06:54:37;;;;;;;7.78;1.80;;;;;;;8.04;100.00;101070.75;4976370;28;20030;-64
2022/11/06 06:57:03;;;;;;;4.20;1.95;;;;;;;8.04;100.00;101066.47;4973929;28;20052;-64
2022/11/06 06:59:29;;;;;;;8.20;1.88;;;;;;;8.03;100.00;101056.97;4988116;28;20061;-64
2022/11/06 07:01:55;;;;;;;7.60;1.50;;;;;;;8.04;100.00;101057.84;4963687;28;20463;-64
2022/11/06 07:04:20;;;;;;;6.53;2.15;;;;;;;8.07;100.00;101060.56;4952821;28;20599;-64
2022/11/06 07:06:46;;;;;;;4.50;1.70;;;;;;;8.09;100.00;101060.63;4961529;28;20030;-64
2022/11/06 07:09:11;;;;;;;6.95;1.75;;;;;;;8.10;100.00;101065.88;4986579;28;20034;-64
2022/11/06 07:11:36;;;;;;;3.20;1.77;;;;;;;8.14;100.00;101061.72;4979241;28;20031;-64
2022/11/06 07:14:02;;;;;;;6.80;1.60;;;;;;;8.19;100.00;101061.91;4981836;28;20026;-64
2022/11/06 07:16:28;;;;;;;3.92;1.77;;;;;;;8.24;100.00;101057.88;4968237;28;20034;-64
2022/11/06 07:18:54;;;;;;;5.82;2.03;;;;;;;8.30;100.00;101050.38;4968146;28;20033;-64
2022/11/06 07:21:20;;;;;;;4.32;1.90;;;;;;;8.36;100.00;101055.84;4955209;28;20050;-64
2022/11/06 07:23:45;;;;;;;9.80;2.30;;;;;;;8.40;100.00;101052.56;4972461;28;20428;-64
2022/11/06 07:26:10;;;;;;;7.82;2.20;;;;;;;8.45;100.00;101050.19;4957916;28;20279;-64
2022/11/06 07:28:36;;;;;;;3.47;1.63;;;;;;;8.50;100.00;101050.38;4962802;28;20158;-64
2022/11/06 07:31:03;;;;;;;4.30;1.60;;;;;;;8.55;100.00;101043.72;4968565;28;20399;-64
2022/11/06 07:33:29;;;;;;;5.50;1.60;;;;;;;8.59;100.00;101048.25;4953708;28;20538;-64
2022/11/06 07:35:55;;;;;;;3.05;1.60;;;;;;;8.62;100.00;101048.38;4968981;28;20030;-64
2022/11/06 07:38:20;;;;;;;5.82;2.08;;;;;;;8.69;100.00;101059.84;4962205;28;20081;-64
2022/11/06 07:40:46;;;;;;;4.32;1.60;;;;;;;8.72;100.00;101051.38;4950557;28;20027;-64
2022/11/06 07:43:11;;;;;;;4.85;1.75;;;;;;;8.76;100.00;101061.03;4954642;28;20086;-64
2022/11/06 07:45:38;;;;;;;6.95;1.98;;;;;;;8.80;100.00;101059.44;4958187;28;20533;-64
2022/11/06 07:48:05;;;;;;;3.55;1.48;;;;;;;8.85;100.00;101045.88;4954257;28;20071;-64
2022/11/06 07:50:30;;;;;;;5.85;1.60;;;;;;;8.90;100.00;101043.53;4958485;28;20023;-65
2022/11/06 07:52:56;;;;;;;5.35;1.63;;;;;;;8.93;100.00;101040.16;4962382;28;20505;-64
2022/11/06 07:55:21;;;;;;;4.25;1.60;;;;;;;8.97;100.00;101037.78;4971953;28;20034;-65
2022/11/06 07:57:47;;;;;;;4.18;1.42;;;;;;;8.98;100.00;101028.31;4965221;28;20031;-64
2022/11/06 08:00:13;;;;;;;4.28;1.60;;;;;;;8.98;100.00;101030.91;4951980;28;20476;-64
2022/11/06 08:02:40;;;;;;;5.05;1.20;;;;;;;9.00;100.00;101030.16;4961646;28;20020;-64
2022/11/06 08:05:05;;;;;;;6.38;2.20;;;;;;;9.01;100.00;101031.03;4961444;28;20166;-64
2022/11/06 08:07:30;;;;;;;5.15;1.55;;;;;;;9.04;100.00;101030.28;4962455;28;20457;-64
2022/11/06 08:09:56;;;;;;;3.50;1.30;;;;;;;9.04;100.00;101028.59;4961291;28;20029;-64
2022/11/06 08:12:21;;;;;;;8.98;1.50;;;;;;;9.03;100.00;101037.13;4954835;28;20039;-64
2022/11/06 08:14:46;;;;;;;7.68;2.22;;;;;;;9.03;100.00;101029.38;4962845;28;20426;-64
2022/11/06 08:17:12;;;;;;;4.35;1.50;;;;;;;9.04;100.00;101028.59;4956326;28;20492;-64
2022/11/06 08:19:37;;;;;;;5.40;1.48;;;;;;;9.05;100.00;101030.34;4952995;28;20098;-64
2022/11/06 08:22:02;;;;;;;6.43;1.60;;;;;;;9.06;100.00;101029.53;4955172;28;20472;-64
2022/11/06 08:24:28;;;;;;;4.68;1.45;;;;;;;9.09;100.00;101028.75;4957935;28;20023;-64
2022/11/06 08:26:53;;;;;;;3.95;1.40;;;;;;;9.11;100.00;101022.84;4959098;28;20023;-65
2022/11/06 08:29:18;;;;;;;10.00;1.45;;;;;;;9.16;100.00;101015.25;4962698;28;20019;-64
2022/11/06 08:31:43;;;;;;;5.97;1.50;;;;;;;9.18;100.00;101011.03;4961169;28;20183;-64
2022/11/06 08:34:09;;;;;;;3.92;1.70;;;;;;;9.21;100.00;101012.88;4955101;28;20118;-64
2022/11/06 08:36:41;;;;;;;2.22;1.13;;;;;;;9.24;100.00;101008.72;4952140;28;20194;-64
2022/11/06 08:39:07;;;;;;;3.10;1.63;;;;;;;9.27;100.00;101004.47;4956405;28;20022;-64
2022/11/06 08:41:33;;;;;;;4.03;1.50;;;;;;;9.28;100.00;101004.56;4957790;28;20031;-64
2022/11/06 08:43:58;;;;;;;5.20;1.75;;;;;;;9.31;100.00;101003.78;4958137;28;20513;-64
2022/11/06 08:46:23;;;;;;;3.72;1.30;;;;;;;9.35;100.00;101006.53;4954971;28;20185;-64
2022/11/06 08:48:49;;;;;;;4.55;1.48;;;;;;;9.40;100.00;100990.31;4951528;28;20047;-64
2022/11/06 08:51:14;;;;;;;3.20;1.20;;;;;;;9.46;100.00;100988.00;4955439;28;20023;-65
2022/11/06 08:53:39;;;;;;;2.00;1.02;;;;;;;9.53;100.00;100997.75;4959600;28;20472;-65
2022/11/06 08:56:05;;;;;;;8.20;1.63;;;;;;;9.56;100.00;100979.75;4952914;28;20054;-65
2022/11/06 08:58:30;;;;;;;8.25;1.30;;;;;;;9.61;100.00;100977.34;4964390;28;20031;-64
2022/11/06 09:00:56;;;;;;;4.88;1.27;;;;;;;9.68;100.00;100979.34;4958970;28;20364;-65
2022/11/06 09:03:21;;;;;;;2.88;1.38;;;;;;;9.75;100.00;100980.44;4954716;28;20019;-65
2022/11/06 09:05:46;;;;;;;2.97;1.15;;;;;;;9.82;100.00;100979.00;4957083;28;20051;-65
2022/11/06 09:08:13;;;;;;;3.50;1.35;;;;;;;9.89;100.00;100972.31;4955958;28;20030;-64
2022/11/06 09:10:40;;;;;;;3.97;1.40;;;;;;;9.96;100.00;100963.97;4956142;28;20482;-64
2022/11/06 09:13:05;;;;;;;4.15;1.20;;;;;;;10.03;100.00;100954.69;4955572;28;20023;-65
2022/11/06 09:15:31;;;;;;;5.30;1.65;;;;;;;10.09;100.00;100953.22;4953495;28;20045;-65
2022/11/06 09:17:57;;;;;;;6.63;1.52;;;;;;;10.16;100.00;100948.25;4969357;28;20113;-64
2022/11/06 09:20:24;;;;;;;4.97;1.88;;;;;;;10.21;100.00;100946.72;4955111;28;20050;-65
2022/11/06 09:22:50;;;;;;;5.38;1.60;;;;;;;10.25;100.00;100946.00;4950580;28;20134;-65
2022/11/06 09:25:16;;;;;;;5.38;1.40;;;;;;;10.30;100.00;100939.28;4956924;28;20027;-65
2022/11/06 09:27:43;;;;;;;4.93;1.10;;;;;;;10.36;100.00;100937.72;4956885;28;20031;-64
2022/11/06 09:30:10;;;;;;;2.40;1.20;;;;;;;10.44;100.00;100918.13;4958771;28;20022;-64
2022/11/06 09:32:36;;;;;;;3.35;1.00;;;;;;;10.54;100.00;100924.56;4955974;28;20026;-65
2022/11/06 09:35:01;;;;;;;2.08;1.08;;;;;;;10.61;100.00;100917.84;4952309;28;20035;-65
2022/11/06 09:37:26;;;;;;;3.95;1.05;;;;;;;10.67;100.00;100912.84;4955513;28;20046;-65
2022/11/06 09:39:51;;;;;;;4.88;1.58;;;;;;;10.68;100.00;100925.00;4954599;28;20018;-65
2022/11/06 09:42:44;;;;;;;3.67;1.27;;;;;;;10.65;100.00;100920.59;4956312;28;20037;-65
2022/11/06 09:45:21;;;;;;;4.50;1.23;;;;;;;10.66;100.00;100921.47;4956623;28;20043;-65
2022/11/06 09:47:51;;;;;;;2.80;1.23;;;;;;;10.67;100.00;100918.03;4950868;28;20031;-65
2022/11/06 09:50:22;;;;;;;4.70;1.25;;;;;;;10.74;100.00;100919.16;4952143;28;20043;-65
2022/11/06 09:52:53;;;;;;;;;;;;;;;10.79;100.00;100913.25;4955616;28;20038;-64
2022/11/06 09:55:29;;;;;;;2.50;1.00;;;;;;;10.87;100.00;100918.69;4957480;28;20070;-65
2022/11/06 09:58:10;;;;;;;1.83;1.40;;;;;;;10.87;100.00;100904.84;4950339;28;20113;-65
2022/11/06 10:00:35;;;;;;;3.20;0.93;;;;;;;10.87;100.00;100907.44;4951601;28;20039;-65
2022/11/06 10:03:56;;;;;;;5.68;1.17;;;;;;;10.84;100.00;100912.53;4947952;28;20314;-64
2022/11/06 10:06:23;;;;;;;5.45;1.23;;;;;;;10.83;100.00;100918.56;4970222;28;20520;-64
2022/11/06 10:08:52;;;;;;;7.00;1.73;;;;;;;10.86;100.00;100908.28;4951507;28;20385;-65
2022/11/06 10:11:25;;;;;;;5.75;1.80;;;;;;;10.87;100.00;100907.44;4955121;28;20835;-65
2022/11/06 10:14:17;;;;;;;2.20;0.93;;;;;;;10.92;100.00;100903.28;4951010;28;20435;-65
2022/11/06 10:17:09;;;;;;;2.13;1.27;;;;;;;10.97;100.00;100901.75;4949154;28;20026;-64
2022/11/06 10:19:40;;;;;;;2.97;1.17;;;;;;;11.01;100.00;100890.59;4947889;28;20094;-65
2022/11/06 10:22:21;;;;;;;3.40;1.48;;;;;;;11.04;100.00;100893.28;4949391;28;20420;-65
2022/11/06 10:24:57;;;;;;;10.35;1.60;;;;;;;11.01;100.00;100888.00;4948229;28;20081;-65
2022/11/06 10:27:40;;;;;;;7.70;2.38;;;;;;;10.93;100.00;100889.50;4953258;28;20066;-65
2022/11/06 10:30:14;;;;;;;3.60;1.00;;;;;;;10.83;100.00;100883.13;4950832;28;20383;-65
2022/11/06 10:33:17;;;;;;;3.42;1.40;;;;;;;10.77;100.00;100876.06;4952702;28;20501;-65
2022/11/06 10:35:48;;;;;;;5.38;1.33;;;;;;;10.74;100.00;100883.72;4958631;28;20043;-65
2022/11/06 10:38:20;;;;;;;5.28;2.03;;;;;;;10.70;100.00;100881.88;4958931;28;20027;-65
2022/11/06 10:40:48;;;;;;;3.83;1.40;;;;;;;10.73;100.00;100887.16;4952718;28;20469;-64
2022/11/06 10:43:19;;;;;;;4.85;1.35;;;;;;;10.72;100.00;100869.81;4957350;28;20027;-64
2022/11/06 10:45:48;;;;;;;4.28;1.10;;;;;;;10.75;100.00;100869.94;4962958;28;20394;-65
2022/11/06 10:48:25;;;;;;;4.43;1.30;;;;;;;10.77;100.00;100863.09;4962333;28;20030;-64
2022/11/06 10:51:24;;;;;;;6.97;1.13;;;;;;;10.83;100.00;100849.44;4959783;28;20073;-65
2022/11/06 10:54:10;;;;;;;2.58;1.10;;;;;;;10.88;100.00;100847.84;4966331;28;20070;-64
2022/11/06 10:56:42;;;;;;;2.63;1.30;;;;;;;10.93;100.00;100848.03;4964354;28;20046;-64
2022/11/06 10:59:08;;;;;;;9.98;2.00;;;;;;;10.96;100.00;100834.25;4964530;28;20056;-64
2022/11/06 11:01:33;;;;;;;4.05;1.10;;;;;;;10.97;100.00;100836.91;4956679;28;20057;-65
2022/11/06 11:03:58;;;;;;;5.75;1.52;;;;;;;11.01;100.00;100830.97;4953529;28;20479;-64
2022/11/06 11:06:23;;;;;;;8.60;1.38;;;;;;;11.01;100.00;100823.19;4966155;28;20029;-65
2022/11/06 11:08:50;;;;;;;3.15;1.20;;;;;;;10.98;100.00;100815.31;4958369;28;20483;-64
2022/11/06 11:11:22;;;;;;;4.57;1.20;;;;;;;10.95;100.00;100810.06;4967331;28;20109;-64
2022/11/06 11:14:14;;;;;;;6.53;2.10;;;;;;;10.99;100.00;100804.09;4961276;28;20031;-65
2022/11/06 11:16:43;;;;;;;5.13;1.88;;;;;;;10.99;100.00;100806.69;4949583;28;20027;-65
2022/11/06 11:19:25;;;;;;;4.85;1.20;;;;;;;11.00;100.00;100808.47;4952883;28;20035;-65
2022/11/06 11:21:56;;;;;;;6.25;1.75;;;;;;;11.00;100.00;100805.88;4965755;28;20069;-63
2022/11/06 11:24:22;;;;;;;3.05;1.20;;;;;;;11.01;100.00;100814.56;4957732;28;20026;-64
2022/11/06 11:26:52;;;;;;;5.05;1.58;;;;;;;11.00;100.00;100798.09;4969059;28;20026;-64
2022/11/06 11:29:21;;;;;;;6.07;1.17;;;;;;;10.98;100.00;100793.69;4976658;28;20023;-64
2022/11/06 11:31:51;;;;;;;6.28;1.00;;;;;;;11.01;100.00;100783.44;4976706;28;20141;-64
2022/11/06 11:34:24;;;;;;;3.72;1.60;;;;;;;11.01;100.00;100779.09;4961777;28;20022;-65
2022/11/06 11:36:54;;;;;;;3.25;1.20;;;;;;;10.98;98.42;100779.03;4975053;28;20033;-65
2022/11/06 11:39:24;;;;;;;5.95;1.30;;;;;;;10.96;99.12;100772.91;4966233;28;20058;-65
2022/11/06 11:41:49;;;;;;;4.30;1.10;;;;;;;10.98;98.74;100776.44;4973623;28;20018;-65
2022/11/06 11:44:17;;;;;;;3.97;1.02;;;;;;;10.95;98.83;100773.75;4972918;28;20391;-64
2022/11/06 11:46:50;;;;;;;1.65;0.88;;;;;;;10.90;97.47;100770.16;4981943;28;20052;-65
2022/11/06 11:49:31;;;;;;;5.40;1.25;;;;;;;10.90;98.52;100775.34;4970950;28;20226;-65